Time;durP1;ratioP1;P1;durP2;ratioP2;P2;SDS_P1;SDS_P2;PMS_P1;PMS_P2;Temp;Humidity;BMP_temperature;BMP_pressure;BME280_temperature;BME280_humidity;BME280_pressure;Samples;Min_cycle;Max_cycle;Signal;HPM_P1;HPM_P2
2022/10/24 00:01:41;;;;;;;1.75;1.65;;;;;;;;;;5009258;28;20232;-67
2022/10/24 00:04:08;;;;;;;1.50;1.40;;;;;;;;;;5009210;28;20679;-67
2022/10/24 00:06:35;;;;;;;5.60;1.88;;;;;;;;;;5008499;28;20224;-67
2022/10/24 00:09:02;;;;;;;1.30;1.30;;;;;;;;;;5009130;28;20201;-66
2022/10/24 00:11:29;;;;;;;2.92;1.55;;;;;;;;;;5008019;28;20227;-66
2022/10/24 00:13:58;;;;;;;2.45;1.75;;;;;;;;;;5008872;28;20557;-66
2022/10/24 00:16:26;;;;;;;8.60;3.78;;;;;;;;;;5008885;28;20227;-66
2022/10/24 00:18:53;;;;;;;6.30;3.35;;;;;;;;;;5008773;28;20633;-66
2022/10/24 00:21:21;;;;;;;5.75;3.58;;;;;;;;;;5008140;28;20205;-66
2022/10/24 00:23:48;;;;;;;1.65;1.65;;;;;;;;;;5008634;28;20220;-66
2022/10/24 00:26:16;;;;;;;2.58;1.90;;;;;;;;;;5008199;28;20197;-65
2022/10/24 00:28:43;;;;;;;1.65;1.52;;;;;;;;;;5008938;28;20211;-66
2022/10/24 00:31:14;;;;;;;2.40;2.20;;;;;;;;;;5008373;28;20205;-66
2022/10/24 00:33:41;;;;;;;3.05;1.73;;;;;;;;;;5008999;28;20615;-65
2022/10/24 00:36:11;;;;;;;2.28;2.08;;;;;;;;;;5008534;28;20220;-66
2022/10/24 00:38:38;;;;;;;2.07;1.87;;;;;;;;;;5007841;28;20252;-66
2022/10/24 00:41:05;;;;;;;3.83;1.55;;;;;;;;;;5007792;28;20201;-66
2022/10/24 00:43:32;;;;;;;1.93;1.80;;;;;;;;;;5008541;28;20216;-66
2022/10/24 00:46:00;;;;;;;1.30;1.27;;;;;;;;;;5007940;28;20208;-66
2022/10/24 00:48:31;;;;;;;1.40;1.40;;;;;;;;;;5008662;28;20204;-65
2022/10/24 00:50:59;;;;;;;1.40;1.40;;;;;;;;;;5008007;28;20213;-65
2022/10/24 00:53:27;;;;;;;1.03;1.03;;;;;;;;;;5007939;28;20636;-65
2022/10/24 00:55:55;;;;;;;2.27;1.07;;;;;;;;;;5007447;28;20347;-66
2022/10/24 00:58:23;;;;;;;2.35;1.30;;;;;;;;;;5008152;28;20232;-66
2022/10/24 01:00:50;;;;;;;3.08;1.00;;;;;;;;;;5007605;28;20209;-65
2022/10/24 01:03:18;;;;;;;2.85;1.30;;;;;;;;;;5008050;28;20212;-66
2022/10/24 01:05:56;;;;;;;1.95;1.00;;;;;;;;;;5007825;28;20217;-66
2022/10/24 01:08:28;;;;;;;1.00;0.90;;;;;;;;;;4998816;28;20216;-66
2022/10/24 01:11:02;;;;;;;2.70;1.10;;;;;;;;;;5007759;28;20219;-66
2022/10/24 01:13:34;;;;;;;2.40;1.10;;;;;;;;;;5007152;28;20201;-66
2022/10/24 01:16:05;;;;;;;2.25;1.33;;;;;;;;;;5007730;28;20220;-66
2022/10/24 01:18:35;;;;;;;4.78;1.15;;;;;;;;;;5007239;28;20229;-66
2022/10/24 01:21:14;;;;;;;1.13;0.70;;;;;;;;;;5007524;28;20209;-66
2022/10/24 01:23:55;;;;;;;1.30;1.20;;;;;;;;;;5007912;28;20205;-66
2022/10/24 01:26:33;;;;;;;1.30;1.10;;;;;;;;;;5007206;28;20201;-66
2022/10/24 01:29:09;;;;;;;1.00;0.90;;;;;;;;;;5007770;28;20698;-65
2022/10/24 01:31:41;;;;;;;1.93;1.00;;;;;;;;;;5007277;28;20211;-66
2022/10/24 01:34:10;;;;;;;0.90;0.90;;;;;;;;;;5007765;28;20201;-66
2022/10/24 01:36:39;;;;;;;1.00;0.93;;;;;;;;;;5007163;28;20209;-66
2022/10/24 01:39:09;;;;;;;0.87;0.87;;;;;;;;;;5007665;28;20228;-66
2022/10/24 01:41:37;;;;;;;2.40;0.80;;;;;;;;;;5000019;28;20747;-66
2022/10/24 01:44:06;;;;;;;0.90;0.90;;;;;;;;;;4998189;28;20836;-66
2022/10/24 01:46:36;;;;;;;5.10;1.00;;;;;;;;;;5002539;28;20249;-66
2022/10/24 01:49:08;;;;;;;4.63;3.00;;;;;;;;;;5006855;28;20306;-66
2022/10/24 01:51:35;;;;;;;3.30;2.80;;;;;;;;;;5007302;28;20209;-66
2022/10/24 01:54:04;;;;;;;2.07;1.60;;;;;;;;;;5007315;28;20225;-66
2022/10/24 01:56:31;;;;;;;1.67;1.57;;;;;;;;;;5006713;28;20332;-65
2022/10/24 01:59:04;;;;;;;2.70;1.87;;;;;;;;;;5007483;28;20227;-66
2022/10/24 02:01:32;;;;;;;1.73;1.63;;;;;;;;;;5007504;28;20243;-66
2022/10/24 02:04:01;;;;;;;1.77;1.67;;;;;;;;;;5007441;28;20209;-66
2022/10/24 02:06:31;;;;;;;1.67;1.57;;;;;;;;;;5010136;28;20636;-66
2022/10/24 02:09:02;;;;;;;1.20;1.20;;;;;;;;;;5011341;28;20208;-66
2022/10/24 02:11:29;;;;;;;1.47;1.47;;;;;;;;;;5011165;28;20209;-66
2022/10/24 02:13:57;;;;;;;1.93;1.17;;;;;;;;;;5011336;28;20639;-66
2022/10/24 02:16:24;;;;;;;1.20;1.20;;;;;;;;;;5011133;28;20215;-66
2022/10/24 02:18:53;;;;;;;2.97;1.10;;;;;;;;;;5010942;28;20224;-66
2022/10/24 02:21:24;;;;;;;1.93;1.30;;;;;;;;;;5010823;28;20552;-66
2022/10/24 02:23:55;;;;;;;9.13;1.67;;;;;;;;;;5010808;28;20300;-66
2022/10/24 02:26:25;;;;;;;1.50;1.43;;;;;;;;;;5010660;28;20208;-66
2022/10/24 02:28:54;;;;;;;1.50;1.40;;;;;;;;;;5011293;28;20205;-66
2022/10/24 02:31:49;;;;;;;4.37;1.13;;;;;;;;;;5010319;28;20217;-66
2022/10/24 02:34:18;;;;;;;1.10;1.10;;;;;;;;;;5010266;28;20212;-66
2022/10/24 02:36:45;;;;;;;0.90;0.90;;;;;;;;;;5010606;28;20201;-66
2022/10/24 02:39:14;;;;;;;1.30;1.20;;;;;;;;;;5010632;28;20228;-66
2022/10/24 02:41:42;;;;;;;1.30;1.30;;;;;;;;;;5000899;28;20228;-66
2022/10/24 02:44:09;;;;;;;4.00;1.13;;;;;;;;;;5010906;28;20216;-66
2022/10/24 02:46:37;;;;;;;1.90;0.90;;;;;;;;;;5009978;28;20252;-66
2022/10/24 02:49:05;;;;;;;1.93;1.03;;;;;;;;;;5010185;28;20212;-66
2022/10/24 02:51:33;;;;;;;1.13;1.03;;;;;;;;;;5009739;28;20214;-66
2022/10/24 02:54:01;;;;;;;2.03;1.30;;;;;;;;;;5009905;28;20232;-66
2022/10/24 02:56:30;;;;;;;2.10;1.20;;;;;;;;;;5009388;28;20243;-66
2022/10/24 02:58:57;;;;;;;1.50;1.40;;;;;;;;;;5009931;28;20208;-66
2022/10/24 03:01:24;;;;;;;1.43;1.43;;;;;;;;;;5009118;28;20213;-66
2022/10/24 03:03:51;;;;;;;1.33;1.33;;;;;;;;;;5010026;28;20209;-66
2022/10/24 03:06:18;;;;;;;1.40;1.30;;;;;;;;;;5009497;28;20239;-66
2022/10/24 03:08:45;;;;;;;0.90;0.90;;;;;;;;;;5009356;28;20204;-66
2022/10/24 03:11:12;;;;;;;2.73;1.03;;;;;;;;;;5009721;28;20212;-66
2022/10/24 03:13:41;;;;;;;2.67;0.77;;;;;;;;;;5009009;28;20216;-66
2022/10/24 03:16:08;;;;;;;0.80;0.80;;;;;;;;;;5009051;28;20209;-66
2022/10/24 03:18:35;;;;;;;0.80;0.73;;;;;;;;;;5009055;28;20369;-66
2022/10/24 03:21:02;;;;;;;2.73;0.73;;;;;;;;;;5009032;28;20228;-66
2022/10/24 03:23:29;;;;;;;1.17;1.17;;;;;;;;;;5009335;28;20205;-65
2022/10/24 03:25:56;;;;;;;4.23;1.13;;;;;;;;;;4992761;28;20205;-66
2022/10/24 03:28:23;;;;;;;2.63;0.97;;;;;;;;;;5007969;28;20229;-66
2022/10/24 03:30:52;;;;;;;1.00;1.00;;;;;;;;;;5008480;28;20212;-66
2022/10/24 03:33:19;;;;;;;4.23;1.40;;;;;;;;;;5009012;28;20286;-66
2022/10/24 03:35:46;;;;;;;1.33;1.23;;;;;;;;;;5008525;28;20208;-66
2022/10/24 03:38:13;;;;;;;4.93;1.43;;;;;;;;;;4995011;28;20205;-65
2022/10/24 03:40:40;;;;;;;1.83;1.50;;;;;;;;;;4993240;28;20603;-66
2022/10/24 03:43:07;;;;;;;3.83;1.10;;;;;;;;;;5007869;28;20205;-66
2022/10/24 03:45:36;;;;;;;2.07;1.17;;;;;;;;;;5008639;28;20216;-66
2022/10/24 03:48:05;;;;;;;1.07;1.07;;;;;;;;;;5008623;28;20668;-66
2022/10/24 03:50:32;;;;;;;2.27;1.70;;;;;;;;;;5007818;28;20201;-66
2022/10/24 03:52:59;;;;;;;3.80;2.20;;;;;;;;;;4993676;28;20217;-66
2022/10/24 03:55:26;;;;;;;3.03;1.80;;;;;;;;;;5007933;28;20248;-66
2022/10/24 03:57:53;;;;;;;6.50;1.30;;;;;;;;;;5008244;28;20227;-66
2022/10/24 04:00:20;;;;;;;1.47;0.97;;;;;;;;;;5008537;28;20225;-66
2022/10/24 04:02:49;;;;;;;3.87;1.20;;;;;;;;;;5008681;28;20212;-66
2022/10/24 04:05:18;;;;;;;1.97;1.30;;;;;;;;;;5008982;28;20687;-66
2022/10/24 04:07:45;;;;;;;8.53;1.73;;;;;;;;;;5008924;28;20231;-66
2022/10/24 04:10:12;;;;;;;5.47;2.23;;;;;;;;;;5008996;28;20571;-66
2022/10/24 04:12:39;;;;;;;4.57;3.43;;;;;;;;;;5008189;28;20205;-66
2022/10/24 04:15:07;;;;;;;10.10;2.60;;;;;;;;;;5008587;28;20304;-66
2022/10/24 04:17:39;;;;;;;2.23;2.03;;;;;;;;;;5008754;28;20205;-66
2022/10/24 04:20:07;;;;;;;3.27;1.40;;;;;;;;;;5007890;28;20241;-66
2022/10/24 04:22:35;;;;;;;4.77;1.30;;;;;;;;;;5008302;28;20208;-66
2022/10/24 04:25:02;;;;;;;2.93;1.07;;;;;;;;;;5008639;28;20213;-66
2022/10/24 04:27:29;;;;;;;0.97;0.87;;;;;;;;;;5008157;28;20319;-65
2022/10/24 04:29:56;;;;;;;1.00;1.00;;;;;;;;;;5008782;28;20702;-66
2022/10/24 04:32:24;;;;;;;1.87;1.13;;;;;;;;;;5007264;28;20232;-66
2022/10/24 04:34:51;;;;;;;1.47;1.23;;;;;;;;;;5008611;28;20224;-66
2022/10/24 04:37:18;;;;;;;2.33;0.80;;;;;;;;;;5008168;28;20587;-66
2022/10/24 04:39:46;;;;;;;3.10;1.10;;;;;;;;;;5008841;28;20236;-66
2022/10/24 04:42:13;;;;;;;1.00;1.00;;;;;;;;;;5008509;28;20215;-66
2022/10/24 04:44:40;;;;;;;2.67;1.00;;;;;;;;;;5008329;28;20209;-66
2022/10/24 04:47:07;;;;;;;1.50;0.90;;;;;;;;;;5007369;28;20587;-66
2022/10/24 04:49:34;;;;;;;1.40;1.30;;;;;;;;;;5008291;28;20237;-66
2022/10/24 04:52:01;;;;;;;2.20;1.60;;;;;;;;;;5008068;28;20629;-66
2022/10/24 04:54:28;;;;;;;3.57;1.50;;;;;;;;;;5008795;28;20244;-67
2022/10/24 04:56:57;;;;;;;0.70;0.70;;;;;;;;;;5007934;28;20236;-66
2022/10/24 04:59:24;;;;;;;2.83;0.90;;;;;;;;;;5008253;28;20586;-67
2022/10/24 05:01:53;;;;;;;3.60;1.33;;;;;;;;;;5007942;28;20209;-66
2022/10/24 05:04:20;;;;;;;1.27;1.13;;;;;;;;;;5008184;28;20254;-66
2022/10/24 05:06:47;;;;;;;1.17;0.97;;;;;;;;;;5005311;28;20205;-67
2022/10/24 05:09:14;;;;;;;1.10;0.97;;;;;;;;;;5008570;28;20213;-66
2022/10/24 05:11:41;;;;;;;1.20;0.83;;;;;;;;;;5008016;28;20208;-66
2022/10/24 05:14:10;;;;;;;1.17;1.00;;;;;;;;;;5007910;28;20678;-66
2022/10/24 05:16:38;;;;;;;0.93;0.93;;;;;;;;;;5001800;28;20640;-68
2022/10/24 05:19:05;;;;;;;2.87;1.20;;;;;;;;;;5001340;28;20212;-66
2022/10/24 05:21:32;;;;;;;4.23;1.33;;;;;;;;;;5007474;28;20244;-66
2022/10/24 05:24:00;;;;;;;2.97;1.30;;;;;;;;;;5007241;28;20256;-65
2022/10/24 05:26:27;;;;;;;1.13;1.13;;;;;;;;;;5007930;28;20216;-66
2022/10/24 05:28:54;;;;;;;4.60;1.43;;;;;;;;;;5007805;28;20668;-66
2022/10/24 05:31:22;;;;;;;0.93;0.90;;;;;;;;;;5007425;28;20220;-66
2022/10/24 05:33:49;;;;;;;3.23;1.30;;;;;;;;;;5007145;28;20595;-65
2022/10/24 05:36:17;;;;;;;1.50;1.10;;;;;;;;;;5007571;28;20212;-65
2022/10/24 05:38:44;;;;;;;2.47;1.20;;;;;;;;;;5004534;28;20275;-65
2022/10/24 05:41:11;;;;;;;1.53;1.30;;;;;;;;;;5011046;28;20235;-66
2022/10/24 05:43:38;;;;;;;0.80;0.80;;;;;;;;;;5011630;28;20217;-66
2022/10/24 05:46:06;;;;;;;2.20;1.37;;;;;;;;;;5011099;28;20329;-66
2022/10/24 05:48:34;;;;;;;4.83;1.17;;;;;;;;;;5010997;28;20209;-66
2022/10/24 05:51:01;;;;;;;1.77;1.03;;;;;;;;;;5011422;28;20567;-66
2022/10/24 05:53:28;;;;;;;1.00;1.00;;;;;;;;;;5011973;28;20237;-66
2022/10/24 05:55:55;;;;;;;1.47;1.00;;;;;;;;;;5010808;28;20233;-66
2022/10/24 05:58:23;;;;;;;0.80;0.80;;;;;;;;;;5011535;28;20213;-66
2022/10/24 06:00:51;;;;;;;1.37;1.03;;;;;;;;;;5011102;28;20224;-66
2022/10/24 06:03:18;;;;;;;0.80;0.80;;;;;;;;;;5010796;28;20690;-66
2022/10/24 06:05:46;;;;;;;1.87;1.10;;;;;;;;;;5011344;28;20213;-66
2022/10/24 06:08:13;;;;;;;1.80;0.80;;;;;;;;;;5011318;28;20698;-66
2022/10/24 06:10:40;;;;;;;1.37;1.20;;;;;;;;;;5010581;28;20209;-66
2022/10/24 06:13:07;;;;;;;2.90;0.90;;;;;;;;;;5011112;28;20216;-65
2022/10/24 06:15:34;;;;;;;4.10;0.90;;;;;;;;;;5010603;28;20213;-66
2022/10/24 06:18:01;;;;;;;0.90;0.90;;;;;;;;;;5010899;28;20216;-65
2022/10/24 06:20:29;;;;;;;0.87;0.87;;;;;;;;;;5010738;28;20224;-64
2022/10/24 06:22:57;;;;;;;1.27;0.87;;;;;;;;;;5002356;28;20206;-65
2022/10/24 06:25:24;;;;;;;0.97;0.97;;;;;;;;;;4995642;28;20201;-65
2022/10/24 06:27:51;;;;;;;0.90;0.90;;;;;;;;;;4994450;28;20295;-65
2022/10/24 06:30:19;;;;;;;6.10;1.33;;;;;;;;;;4991041;28;20201;-65
2022/10/24 06:32:46;;;;;;;7.97;1.20;;;;;;;;;;4991208;28;20209;-66
2022/10/24 06:35:14;;;;;;;5.03;0.90;;;;;;;;;;4995171;28;20205;-66
2022/10/24 06:37:41;;;;;;;4.43;0.70;;;;;;;;;;4994132;28;20213;-66
2022/10/24 06:40:10;;;;;;;2.93;0.90;;;;;;;;;;5010448;28;20216;-66
2022/10/24 06:42:37;;;;;;;0.90;0.90;;;;;;;;;;5009589;28;20235;-66
2022/10/24 06:45:05;;;;;;;3.50;1.10;;;;;;;;;;5010007;28;20212;-66
2022/10/24 06:47:32;;;;;;;2.40;1.57;;;;;;;;;;5010155;28;20585;-65
2022/10/24 06:49:59;;;;;;;9.30;1.23;;;;;;;;;;5005118;28;20667;-66
2022/10/24 06:52:26;;;;;;;1.20;1.00;;;;;;;;;;4990800;28;20201;-65
2022/10/24 06:54:53;;;;;;;3.20;1.00;;;;;;;;;;4989564;28;20260;-65
2022/10/24 06:57:22;;;;;;;2.87;1.60;;;;;;;;;;4989607;28;20242;-65
2022/10/24 06:59:49;;;;;;;2.50;1.30;;;;;;;;;;4990281;28;20210;-66
2022/10/24 07:02:17;;;;;;;2.20;1.30;;;;;;;;;;5006061;28;20229;-67
2022/10/24 07:04:44;;;;;;;1.50;1.40;;;;;;;;;;5009670;28;20225;-66
2022/10/24 07:07:14;;;;;;;1.20;1.20;;;;;;;;;;5002647;28;20202;-66
2022/10/24 07:09:41;;;;;;;1.10;1.10;;;;;;;;;;4992259;28;20210;-66
2022/10/24 07:12:08;;;;;;;1.20;0.93;;;;;;;;;;5004388;28;20216;-66
2022/10/24 07:14:36;;;;;;;7.70;1.07;;;;;;;;;;5009108;28;20228;-66
2022/10/24 07:17:04;;;;;;;1.37;1.20;;;;;;;;;;5000955;28;20220;-66
2022/10/24 07:19:31;;;;;;;2.23;1.37;;;;;;;;;;4989335;28;20210;-66
2022/10/24 07:21:58;;;;;;;1.60;1.50;;;;;;;;;;4989932;28;20234;-64
2022/10/24 07:24:25;;;;;;;4.77;1.53;;;;;;;;;;4989785;28;20268;-63
2022/10/24 07:26:52;;;;;;;1.33;0.97;;;;;;;;;;4989494;28;20240;-64
2022/10/24 07:29:19;;;;;;;1.37;1.30;;;;;;;;;;4997847;28;20205;-65
2022/10/24 07:31:48;;;;;;;1.77;1.67;;;;;;;;;;5008858;28;20212;-65
2022/10/24 07:34:15;;;;;;;3.00;1.63;;;;;;;;;;5008808;28;20728;-64
2022/10/24 07:36:42;;;;;;;3.70;1.87;;;;;;;;;;5009643;28;20216;-65
2022/10/24 07:39:09;;;;;;;4.80;2.27;;;;;;;;;;4995390;28;20221;-67
2022/10/24 07:41:39;;;;;;;6.63;1.90;;;;;;;;;;4989467;28;20230;-65
2022/10/24 07:44:06;;;;;;;2.87;1.90;;;;;;;;;;4995308;28;20209;-65
2022/10/24 07:46:33;;;;;;;5.33;1.30;;;;;;;;;;5008232;28;20213;-64
2022/10/24 07:49:02;;;;;;;9.47;1.60;;;;;;;;;;5008848;28;20201;-64
2022/10/24 07:51:30;;;;;;;3.63;1.80;;;;;;;;;;5009586;28;20658;-64
2022/10/24 07:53:57;;;;;;;1.73;1.53;;;;;;;;;;5009193;28;20229;-64
2022/10/24 07:56:24;;;;;;;9.80;1.97;;;;;;;;;;5008653;28;20232;-64
2022/10/24 07:58:51;;;;;;;2.07;1.67;;;;;;;;;;5008558;28;20235;-64
2022/10/24 08:01:19;;;;;;;2.55;2.15;;;;;;;;;;5007589;28;20766;-64
2022/10/24 08:03:46;;;;;;;3.17;1.85;;;;;;;;;;5007937;28;20212;-64
2022/10/24 08:06:17;;;;;;;3.83;1.80;;;;;;;;;;5008651;28;20212;-64
2022/10/24 08:08:44;;;;;;;7.40;1.90;;;;;;;;;;4989934;28;20218;-65
2022/10/24 08:11:12;;;;;;;7.50;1.85;;;;;;;;;;4996889;28;20212;-64
2022/10/24 08:13:40;;;;;;;3.95;2.22;;;;;;;;;;5008937;28;20691;-62
2022/10/24 08:16:07;;;;;;;2.63;1.75;;;;;;;;;;5008292;28;20205;-63
2022/10/24 08:18:35;;;;;;;7.38;1.58;;;;;;;;;;5008203;28;20205;-67
2022/10/24 08:21:04;;;;;;;1.90;1.55;;;;;;;;;;5008565;28;20236;-67
2022/10/24 08:23:32;;;;;;;3.08;1.48;;;;;;;;;;5008064;28;20209;-66
2022/10/24 08:26:00;;;;;;;2.97;1.73;;;;;;;;;;5008823;28;20209;-67
2022/10/24 08:28:27;;;;;;;1.73;1.63;;;;;;;;;;5009012;28;20308;-67
2022/10/24 08:30:57;;;;;;;5.05;1.90;;;;;;;;;;5008239;28;20209;-67
2022/10/24 08:33:24;;;;;;;10.02;1.63;;;;;;;;;;5007919;28;20228;-67
2022/10/24 08:35:59;;;;;;;8.98;1.88;;;;;;;;;;5007161;28;20197;-63
2022/10/24 08:38:26;;;;;;;3.67;2.38;;;;;;;;;;5008066;28;20197;-66
2022/10/24 08:40:54;;;;;;;7.50;1.80;;;;;;;;;;5008346;28;20233;-68
2022/10/24 08:43:22;;;;;;;4.30;1.38;;;;;;;;;;5000745;28;20213;-67
2022/10/24 08:45:52;;;;;;;5.28;1.67;;;;;;;;;;5006625;28;20205;-67
2022/10/24 08:48:26;;;;;;;7.75;1.92;;;;;;;;;;5006771;28;20850;-69
2022/10/24 08:50:54;;;;;;;5.57;1.73;;;;;;;;;;5006646;28;20205;-65
2022/10/24 08:53:23;;;;;;;2.25;1.70;;;;;;;;;;5005521;28;20228;-66
2022/10/24 08:55:52;;;;;;;3.28;1.80;;;;;;;;;;4991634;28;20237;-65
2022/10/24 08:58:24;;;;;;;4.15;1.33;;;;;;;;;;4990077;28;20433;-65
2022/10/24 09:00:52;;;;;;;3.95;1.60;;;;;;;;;;5005920;28;20209;-65
2022/10/24 09:03:21;;;;;;;7.53;1.73;;;;;;;;;;5005323;28;20450;-65
2022/10/24 09:05:50;;;;;;;8.60;1.98;;;;;;;;;;4998778;28;20222;-65
2022/10/24 09:08:21;;;;;;;5.18;1.25;;;;;;;;;;4986380;28;20221;-66
2022/10/24 09:10:51;;;;;;;5.72;1.52;;;;;;;;;;4986963;28;20216;-65
2022/10/24 09:13:18;;;;;;;4.15;1.40;;;;;;;;;;4985453;28;20621;-65
2022/10/24 09:15:47;;;;;;;4.75;1.85;;;;;;;;;;4986522;28;20206;-65
2022/10/24 09:18:17;;;;;;;1.35;1.20;;;;;;;;;;5003796;28;20215;-65
2022/10/24 09:20:44;;;;;;;1.92;1.40;;;;;;;;;;5006228;28;20224;-65
2022/10/24 09:23:13;;;;;;;4.22;1.60;;;;;;;;;;5005711;28;20201;-65
2022/10/24 09:25:42;;;;;;;5.38;1.55;;;;;;;;;;5004655;28;20219;-65
2022/10/24 09:28:11;;;;;;;2.25;1.70;;;;;;;;;;5005123;28;20330;-65
2022/10/24 09:30:38;;;;;;;2.85;1.40;;;;;;;;;;5005788;28;20663;-66
2022/10/24 09:33:12;;;;;;;5.40;1.38;;;;;;;;;;5004871;28;20509;-66
2022/10/24 09:35:39;;;;;;;2.35;1.45;;;;;;;;;;5005611;28;20201;-65
2022/10/24 09:38:21;;;;;;;3.85;1.50;;;;;;;;;;5005545;28;20217;-66
2022/10/24 09:40:50;;;;;;;2.42;1.05;;;;;;;;;;5005179;28;20201;-66
2022/10/24 09:43:18;;;;;;;3.60;1.48;;;;;;;;;;5005277;28;20224;-67
2022/10/24 09:45:46;;;;;;;1.85;1.40;;;;;;;;;;5005782;28;20223;-66
2022/10/24 09:48:19;;;;;;;2.25;1.10;;;;;;;;;;5005973;28;20201;-66
2022/10/24 09:50:47;;;;;;;2.00;1.20;;;;;;;;;;5005253;28;20208;-65
2022/10/24 09:53:22;;;;;;;2.83;1.08;;;;;;;;;;5005438;28;20201;-65
2022/10/24 09:55:51;;;;;;;2.70;1.65;;;;;;;;;;5004871;28;20247;-65
2022/10/24 09:58:18;;;;;;;1.38;1.20;;;;;;;;;;5005356;28;20205;-66
2022/10/24 10:00:57;;;;;;;6.88;1.30;;;;;;;;;;5004769;28;20205;-65
2022/10/24 10:03:26;;;;;;;5.15;1.10;;;;;;;;;;5000006;28;20679;-69
2022/10/24 10:05:54;;;;;;;4.18;1.08;;;;;;;;;;5003899;28;20205;-64
2022/10/24 10:08:22;;;;;;;5.18;1.10;;;;;;;;;;5001817;28;20335;-65
2022/10/24 10:10:57;;;;;;;4.72;1.08;;;;;;;;;;5006160;28;20213;-71
2022/10/24 10:13:26;;;;;;;4.70;1.10;;;;;;;;;;4996850;28;20591;-67
2022/10/24 10:15:54;;;;;;;2.00;0.98;;;;;;;;;;4992457;28;20671;-68
2022/10/24 10:18:23;;;;;;;1.27;1.08;;;;;;;;;;5005255;28;20251;-68
2022/10/24 10:21:00;;;;;;;2.45;1.30;;;;;;;;;;4981893;28;20213;-67
2022/10/24 10:23:28;;;;;;;3.67;1.25;;;;;;;;;;4933508;29;20214;-68
2022/10/24 10:26:02;;;;;;;7.00;1.33;;;;;;;;;;4936319;29;20208;-68
2022/10/24 10:28:29;;;;;;;1.50;0.80;;;;;;;;;;4939447;29;20208;-68
2022/10/24 10:30:59;;;;;;;1.92;1.15;;;;;;;;;;4941227;29;20230;-68
2022/10/24 10:33:31;;;;;;;3.35;1.13;;;;;;;;;;4942439;29;20222;-68
2022/10/24 10:36:05;;;;;;;1.20;1.10;;;;;;;;;;4937450;29;20675;-68
2022/10/24 10:38:37;;;;;;;3.38;1.27;;;;;;;;;;4947713;29;20226;-67
2022/10/24 10:41:09;;;;;;;2.75;0.95;;;;;;;;;;4942114;29;20206;-68
2022/10/24 10:43:38;;;;;;;1.15;0.95;;;;;;;;;;4946575;29;20219;-67
2022/10/24 10:46:10;;;;;;;1.17;1.13;;;;;;;;;;4934432;29;20806;-67
2022/10/24 10:48:45;;;;;;;5.40;1.50;;;;;;;;;;4941802;29;20211;-65
2022/10/24 10:51:18;;;;;;;2.28;1.50;;;;;;;;;;4931699;29;20214;-66
2022/10/24 10:53:49;;;;;;;2.15;1.30;;;;;;;;;;4940128;28;20227;-66
2022/10/24 10:56:23;;;;;;;5.40;1.30;;;;;;;;;;4935326;29;20713;-65
2022/10/24 10:58:54;;;;;;;1.02;0.93;;;;;;;;;;4945816;29;20203;-66
2022/10/24 11:01:25;;;;;;;6.32;1.67;;;;;;;;;;4947841;29;20706;-64
2022/10/24 11:03:57;;;;;;;4.93;1.02;;;;;;;;;;4946984;29;20215;-64
2022/10/24 11:06:35;;;;;;;4.40;1.55;;;;;;;;;;4950160;29;20234;-64
2022/10/24 11:09:21;;;;;;;1.85;1.15;;;;;;;;;;4942342;29;20227;-64
2022/10/24 11:11:52;;;;;;;1.95;1.05;;;;;;;;;;4949923;29;20210;-64
2022/10/24 11:14:26;;;;;;;2.75;1.05;;;;;;;;;;4947133;29;20344;-64
2022/10/24 11:16:54;;;;;;;3.03;1.00;;;;;;;;;;4949875;29;20212;-64
2022/10/24 11:19:23;;;;;;;1.13;1.10;;;;;;;;;;4943363;29;20219;-67
2022/10/24 11:21:52;;;;;;;1.80;0.98;;;;;;;;;;4948016;29;20745;-66
2022/10/24 11:24:22;;;;;;;0.88;0.88;;;;;;;;;;4944194;29;20229;-65
2022/10/24 11:26:53;;;;;;;2.42;1.02;;;;;;;;;;4943472;29;20481;-64
2022/10/24 11:29:24;;;;;;;1.00;0.90;;;;;;;;;;4942687;29;20215;-65
2022/10/24 11:31:55;;;;;;;1.27;1.15;;;;;;;;;;4944734;29;20398;-66
2022/10/24 11:34:25;;;;;;;1.38;1.05;;;;;;;;;;4945649;29;20295;-64
2022/10/24 11:36:55;;;;;;;0.80;0.80;;;;;;;;;;4949319;28;20596;-65
2022/10/24 11:39:24;;;;;;;6.97;0.90;;;;;;;;;;4949971;29;20682;-65
2022/10/24 11:41:54;;;;;;;0.70;0.70;;;;;;;;;;4940140;29;20239;-65
2022/10/24 11:44:26;;;;;;;4.55;0.50;;;;;;;;;;4935902;29;20207;-65
2022/10/24 11:46:59;;;;;;;1.55;0.50;;;;;;;;;;4936312;29;20657;-65
2022/10/24 11:49:31;;;;;;;2.33;0.50;;;;;;;;;;4947295;29;20246;-65
2022/10/24 11:52:01;;;;;;;0.40;0.40;;;;;;;;;;4951087;29;20211;-66
2022/10/24 11:54:31;;;;;;;1.35;0.77;;;;;;;;;;4950717;28;20311;-66
2022/10/24 11:57:00;;;;;;;1.35;0.68;;;;;;;;;;4950303;29;20242;-66
2022/10/24 11:59:28;;;;;;;0.50;0.50;;;;;;;;;;4950770;29;20214;-66
2022/10/24 12:02:21;;;;;;;1.08;0.65;;;;;;;;;;4950693;29;20231;-66
2022/10/24 12:05:00;;;;;;;1.67;0.52;;;;;;;;;;4948004;29;20551;-66
2022/10/24 12:07:45;;;;;;;0.60;0.60;;;;;;;;;;4950446;29;20988;-66
2022/10/24 12:10:23;;;;;;;3.83;0.70;;;;;;;;;;4936188;29;20215;-65
2022/10/24 12:12:58;;;;;;;0.47;0.43;;;;;;;;;;4931133;29;20219;-67
2022/10/24 12:15:30;;;;;;;1.63;0.70;;;;;;;;;;4949849;29;20241;-66
2022/10/24 12:18:19;;;;;;;1.85;0.45;;;;;;;;;;4949777;29;20207;-66
2022/10/24 12:20:46;;;;;;;2.10;0.40;;;;;;;;;;4949764;29;20211;-66
2022/10/24 12:23:20;;;;;;;1.73;0.82;;;;;;;;;;4950065;29;20238;-66
2022/10/24 12:25:51;;;;;;;0.55;0.55;;;;;;;;;;4950124;29;20221;-66
2022/10/24 12:28:20;;;;;;;0.93;0.45;;;;;;;;;;4949683;29;20704;-66
2022/10/24 12:31:02;;;;;;;1.23;0.65;;;;;;;;;;4949369;29;20218;-66
2022/10/24 12:33:29;;;;;;;0.98;0.40;;;;;;;;;;4950083;28;20222;-66
2022/10/24 12:35:57;;;;;;;1.50;0.60;;;;;;;;;;4949940;29;20315;-66
2022/10/24 12:38:44;;;;;;;0.88;0.80;;;;;;;;;;4930570;29;20230;-66
2022/10/24 12:41:26;;;;;;;0.55;0.55;;;;;;;;;;4911482;29;20208;-66
2022/10/24 12:44:14;;;;;;;0.50;0.50;;;;;;;;;;4911778;29;20288;-65
2022/10/24 12:46:54;;;;;;;1.45;0.40;;;;;;;;;;4911706;29;20319;-66
2022/10/24 12:49:27;;;;;;;1.23;0.38;;;;;;;;;;4917667;29;20251;-66
2022/10/24 12:51:54;;;;;;;1.55;0.75;;;;;;;;;;4911543;29;20216;-66
2022/10/24 12:54:36;;;;;;;0.50;0.50;;;;;;;;;;4911310;29;20836;-66
2022/10/24 12:57:21;;;;;;;0.85;0.60;;;;;;;;;;4911343;29;20251;-66
2022/10/24 12:59:49;;;;;;;2.35;0.80;;;;;;;;;;4911435;29;20601;-66
2022/10/24 13:02:34;;;;;;;1.05;0.40;;;;;;;;;;4910951;29;20224;-66
2022/10/24 13:05:07;;;;;;;2.42;0.77;;;;;;;;;;4911180;29;20216;-66
2022/10/24 13:07:48;;;;;;;2.05;0.60;;;;;;;;;;4911270;29;20336;-66
2022/10/24 13:10:48;;;;;;;2.47;0.57;;;;;;;;;;4925271;29;20226;-66
2022/10/24 13:13:24;;;;;;;4.57;1.15;;;;;;;;;;4889284;29;20217;-65
2022/10/24 13:15:55;;;;;;;9.95;2.53;;;;;;;;;;4889702;29;20351;-65
2022/10/24 13:18:29;;;;;;;8.27;2.33;;;;;;;;;;4910832;29;20222;-65
2022/10/24 13:21:08;;;;;;;5.38;1.85;;;;;;;;;;4929944;29;20226;-64
2022/10/24 13:23:35;;;;;;;1.52;1.05;;;;;;;;;;4929625;29;20312;-68
2022/10/24 13:26:02;;;;;;;4.80;1.00;;;;;;;;;;4929808;29;20239;-67
2022/10/24 13:28:33;;;;;;;13.82;3.72;;;;;;;;;;4930054;29;20234;-66
2022/10/24 13:31:15;;;;;;;1.92;0.90;;;;;;;;;;4928841;29;20219;-65
2022/10/24 13:33:44;;;;;;;2.40;0.73;;;;;;;;;;4925003;29;20223;-66
2022/10/24 13:36:16;;;;;;;2.60;0.63;;;;;;;;;;4927915;29;20206;-64
2022/10/24 13:38:46;;;;;;;2.65;1.20;;;;;;;;;;4928792;29;20275;-69
2022/10/24 13:41:18;;;;;;;2.08;0.57;;;;;;;;;;4914388;29;20599;-66
2022/10/24 13:43:46;;;;;;;3.35;0.77;;;;;;;;;;4929226;29;20331;-66
2022/10/24 13:46:19;;;;;;;5.65;1.67;;;;;;;;;;4930189;29;20235;-66
2022/10/24 13:48:48;;;;;;;5.45;2.50;;;;;;;;;;4929444;29;20207;-66
2022/10/24 13:51:20;;;;;;;0.57;0.47;;;;;;;;;;4924979;29;20212;-66
2022/10/24 13:53:49;;;;;;;0.20;0.20;;;;;;;;;;4924844;29;20230;-68
2022/10/24 13:56:17;;;;;;;3.60;1.40;;;;;;;;;;4928162;29;20718;-66
2022/10/24 13:58:45;;;;;;;7.07;1.45;;;;;;;;;;4921315;29;20216;-69
2022/10/24 14:01:17;;;;;;;2.03;0.60;;;;;;;;;;4927537;29;20219;-68
2022/10/24 14:03:44;;;;;;;1.73;0.85;;;;;;;;;;4922704;29;20227;-68
2022/10/24 14:06:13;;;;;;;7.00;1.60;;;;;;;;;;4916101;29;20216;-69
2022/10/24 14:08:43;;;;;;;2.00;1.10;;;;;;;;;;4919398;29;20675;-69
2022/10/24 14:11:14;;;;;;;5.68;1.30;;;;;;;;;;4914037;29;20227;-67
2022/10/24 14:13:44;;;;;;;0.60;0.60;;;;;;;;;;4933229;29;20242;-66
2022/10/24 14:16:11;;;;;;;1.05;0.82;;;;;;;;;;4915047;29;20223;-66
2022/10/24 14:18:40;;;;;;;5.72;2.72;;;;;;;;;;4928486;29;20208;-66
2022/10/24 14:21:15;;;;;;;1.05;0.95;;;;;;;;;;4913572;29;20244;-66
2022/10/24 14:23:53;;;;;;;4.47;1.88;;;;;;;;;;4930427;29;20232;-66
2022/10/24 14:26:21;;;;;;;0.73;0.73;;;;;;;;;;4932974;29;20216;-66
2022/10/24 14:28:50;;;;;;;1.70;0.57;;;;;;;;;;4933183;29;20219;-69
2022/10/24 14:31:20;;;;;;;5.10;1.02;;;;;;;;;;4927936;29;20784;-66
2022/10/24 14:33:49;;;;;;;1.38;0.30;;;;;;;;;;4917399;29;20200;-66
2022/10/24 14:36:19;;;;;;;0.75;0.47;;;;;;;;;;4932054;29;20299;-66
2022/10/24 14:38:49;;;;;;;1.17;0.30;;;;;;;;;;4932895;29;20212;-67
2022/10/24 14:41:16;;;;;;;0.70;0.38;;;;;;;;;;4931545;29;20343;-66
2022/10/24 14:43:44;;;;;;;0.32;0.32;;;;;;;;;;4933144;29;20231;-66
2022/10/24 14:46:30;;;;;;;1.95;0.68;;;;;;;;;;4932734;29;20204;-66
2022/10/24 14:48:57;;;;;;;0.40;0.40;;;;;;;;;;4913637;29;20219;-66
2022/10/24 14:51:27;;;;;;;0.70;0.60;;;;;;;;;;4921171;29;20212;-66
2022/10/24 14:53:56;;;;;;;2.30;0.43;;;;;;;;;;4922923;29;20252;-66
2022/10/24 14:56:25;;;;;;;1.65;0.80;;;;;;;;;;4931292;29;20251;-66
2022/10/24 14:58:53;;;;;;;0.45;0.43;;;;;;;;;;4931873;29;20659;-67